Time;durP1;ratioP1;P1;durP2;ratioP2;P2;SDS_P1;SDS_P2;PMS_P1;PMS_P2;Temp;Humidity;BMP_temperature;BMP_pressure;BME280_temperature;BME280_humidity;BME280_pressure;Samples;Min_cycle;Max_cycle;Signal;HPM_P1;HPM_P2
2023/10/14 00:04:58;;;;;;;9.13;3.33;;;21.90;57.50;;;;;;21079880;28;20236;-81
2023/10/14 00:15:05;;;;;;;8.87;3.37;;;21.80;58.30;;;;;;21079601;28;20677;-80
2023/10/14 00:25:18;;;;;;;10.97;3.67;;;21.80;58.80;;;;;;21079208;28;20198;-80
2023/10/14 00:35:20;;;;;;;6.27;3.60;;;21.70;59.10;;;;;;21078418;28;20276;-73
2023/10/14 00:45:22;;;;;;;8.33;3.57;;;21.70;59.40;;;;;;21077605;28;20289;-78
2023/10/14 00:55:27;;;;;;;11.37;3.50;;;21.70;59.40;;;;;;21077545;28;20242;-75
2023/10/14 01:05:29;;;;;;;5.70;3.50;;;21.60;59.30;;;;;;21092373;28;20294;-75
2023/10/14 01:15:31;;;;;;;5.93;3.53;;;21.60;59.40;;;;;;21091962;28;20277;-74
2023/10/14 01:26:03;;;;;;;8.50;4.27;;;21.60;59.80;;;;;;21091414;28;20211;-73
2023/10/14 01:35:59;;;;;;;11.37;3.93;;;21.60;60.30;;;;;;21090489;28;20236;-73
2023/10/14 01:46:00;;;;;;;10.00;4.63;;;21.60;60.90;;;;;;21089686;28;20234;-73
2023/10/14 01:56:03;;;;;;;10.10;3.90;;;21.60;61.50;;;;;;21088714;28;20713;-73
2023/10/14 02:06:17;;;;;;;12.00;4.30;;;21.60;62.20;;;;;;21088803;28;20211;-73
2023/10/14 02:16:43;;;;;;;8.33;4.30;;;21.60;63.10;;;;;;21087139;28;20265;-74
2023/10/14 02:26:48;;;;;;;12.77;4.63;;;21.60;64.10;;;;;;21086268;28;20245;-76
2023/10/14 02:36:50;;;;;;;9.90;4.87;;;21.60;64.80;;;;;;21086160;28;20211;-75
2023/10/14 02:46:54;;;;;;;11.17;4.70;;;21.60;65.40;;;;;;21085042;28;20232;-73
2023/10/14 02:57:00;;;;;;;12.40;5.00;;;21.60;66.10;;;;;;21084056;28;20245;-73
2023/10/14 03:07:03;;;;;;;11.00;5.17;;;21.70;66.70;;;;;;21066253;28;20230;-73
2023/10/14 03:17:04;;;;;;;10.80;5.03;;;21.60;67.20;;;;;;21082447;28;20212;-74
2023/10/14 03:27:07;;;;;;;13.43;5.37;;;21.60;67.70;;;;;;21080707;28;20586;-76
2023/10/14 03:37:21;;;;;;;16.47;5.53;;;21.60;68.30;;;;;;21082134;28;20206;-75
2023/10/14 03:47:34;;;;;;;12.97;5.67;;;21.60;68.80;;;;;;21081049;28;20240;-74
2023/10/14 03:57:37;;;;;;;14.60;5.87;;;21.60;69.10;;;;;;21080548;28;20333;-74
2023/10/14 04:07:41;;;;;;;12.90;5.80;;;21.60;69.70;;;;;;21080094;28;20701;-77
2023/10/14 04:17:48;;;;;;;17.87;6.07;;;21.50;70.10;;;;;;21078813;28;20275;-77
2023/10/14 04:37:54;;;;;;;15.83;5.73;;;21.50;71.00;;;;;;21090613;28;20210;-74
2023/10/14 04:47:57;;;;;;;17.60;5.40;;;21.50;71.30;;;;;;21076925;28;20230;-77
2023/10/14 04:58:11;;;;;;;13.03;5.87;;;21.50;71.70;;;;;;21094045;28;20685;-76
2023/10/14 05:08:21;;;;;;;15.03;5.87;;;21.40;72.50;;;;;;21093391;28;20234;-75
2023/10/14 05:18:29;;;;;;;9.97;5.63;;;21.30;73.90;;;;;;21092039;28;20210;-76
2023/10/14 05:28:31;;;;;;;11.63;5.20;;;21.20;74.50;;;;;;21091246;28;20237;-77
2023/10/14 05:38:33;;;;;;;11.80;4.67;;;21.20;74.90;;;;;;21091578;28;20207;-75
2023/10/14 05:48:34;;;;;;;20.77;7.03;;;21.10;75.00;;;;;;21089303;28;20324;-79
2023/10/14 05:58:37;;;;;;;9.03;4.67;;;21.00;75.10;;;;;;21088727;28;20239;-75
2023/10/14 06:08:40;;;;;;;12.63;4.03;;;21.00;75.60;;;;;;21110793;28;20694;-82
2023/10/14 06:18:47;;;;;;;7.53;3.90;;;20.90;76.10;;;;;;21159266;28;20203;-74
2023/10/14 06:28:52;;;;;;;9.10;3.77;;;20.90;76.90;;;;;;21085627;28;20230;-78
2023/10/14 06:38:59;;;;;;;6.27;3.10;;;20.80;77.50;;;;;;21124688;28;20318;-72
2023/10/14 06:49:00;;;;;;;7.90;2.50;;;20.60;78.20;;;;;;21168382;28;20270;-69
2023/10/14 06:59:02;;;;;;;2.67;2.10;;;20.60;79.20;;;;;;21167131;28;20233;-72
2023/10/14 07:09:17;;;;;;;8.17;2.17;;;20.60;80.00;;;;;;21161631;28;20236;-70
2023/10/14 07:19:18;;;;;;;6.73;1.90;;;20.60;80.70;;;;;;21082856;28;20241;-69
2023/10/14 07:29:21;;;;;;;2.60;2.10;;;20.50;83.80;;;;;;21081695;28;20249;-69
2023/10/14 07:39:29;;;;;;;1.27;0.80;;;19.30;90.10;;;;;;21080997;28;20203;-68
2023/10/14 07:49:33;;;;;;;0.53;0.50;;;18.60;92.00;;;;;;21080537;28;20698;-69
2023/10/14 07:59:35;;;;;;;0.60;0.60;;;18.10;92.70;;;;;;21079379;28;20241;-69
2023/10/14 08:09:39;;;;;;;0.67;0.60;;;17.90;94.20;;;;;;21089619;28;20233;-72
2023/10/14 08:19:41;;;;;;;1.87;0.73;;;18.10;94.90;;;;;;21163198;28;20645;-72
2023/10/14 08:29:43;;;;;;;0.60;0.60;;;18.00;95.60;;;;;;21162405;28;20234;-74
2023/10/14 08:39:44;;;;;;;0.77;0.77;;;18.00;96.10;;;;;;21162959;28;20202;-73
2023/10/14 08:49:46;;;;;;;2.67;2.00;;;18.20;96.40;;;;;;21161788;28;20240;-73
2023/10/14 08:59:49;;;;;;;0.50;0.50;;;18.20;96.40;;;;;;21162166;28;20672;-70
2023/10/14 09:09:53;;;;;;;0.60;0.60;;;18.10;96.60;;;;;;21148739;28;20563;-76
2023/10/14 09:19:55;;;;;;;3.33;0.50;;;18.10;96.50;;;;;;21081723;28;20210;-84
2023/10/14 09:29:57;;;;;;;0.50;0.50;;;17.90;96.50;;;;;;21093318;28;20238;-71
2023/10/14 09:40:06;;;;;;;0.40;0.40;;;17.90;96.60;;;;;;21090082;28;20203;-76
2023/10/14 09:50:13;;;;;;;1.50;1.10;;;17.80;96.20;;;;;;21090412;28;20242;-75
2023/10/14 10:00:16;;;;;;;1.53;0.60;;;18.10;95.60;;;;;;21088748;28;20234;-73
2023/10/14 10:10:25;;;;;;;3.60;1.07;;;18.20;95.90;;;;;;21104676;28;20229;-75
2023/10/14 10:20:35;;;;;;;2.43;1.00;;;18.20;94.20;;;;;;21154376;28;20244;-72
2023/10/14 10:30:46;;;;;;;4.10;1.20;;;17.80;92.50;;;;;;21170277;28;20653;-74
2023/10/14 10:41:25;;;;;;;5.27;1.30;;;17.60;90.70;;;;;;21169997;28;20605;-71
2023/10/14 10:51:29;;;;;;;5.83;1.47;;;17.40;90.00;;;;;;21169394;28;20256;-71
2023/10/14 11:01:32;;;;;;;3.20;1.90;;;17.60;88.50;;;;;;21168224;28;20612;-73
2023/10/14 11:11:34;;;;;;;13.97;1.80;;;17.40;88.20;;;;;;21140306;28;20226;-74
2023/10/14 11:21:39;;;;;;;8.07;1.97;;;17.40;85.60;;;;;;21082519;28;20206;-71
2023/10/14 11:31:43;;;;;;;6.77;2.07;;;17.60;82.00;;;;;;21081433;28;20711;-71
2023/10/14 11:41:45;;;;;;;7.17;2.40;;;17.70;79.30;;;;;;21077935;28;20734;-70
2023/10/14 11:51:47;;;;;;;6.40;2.10;;;17.50;77.60;;;;;;21080390;28;20252;-70
2023/10/14 12:01:49;;;;;;;4.63;2.10;;;17.30;76.50;;;;;;21061487;28;20208;-72
2023/10/14 12:11:50;;;;;;;9.40;2.53;;;17.30;75.70;;;;;;21108022;28;20312;-70
2023/10/14 12:21:52;;;;;;;11.43;2.30;;;17.50;73.40;;;;;;21163075;28;20284;-72
2023/10/14 12:31:58;;;;;;;5.77;1.87;;;17.30;70.40;;;;;;21162102;28;20245;-71
2023/10/14 12:42:23;;;;;;;7.20;2.03;;;17.20;68.30;;;;;;21162232;28;20228;-70
2023/10/14 12:52:29;;;;;;;4.83;1.60;;;17.30;65.60;;;;;;21162073;28;20241;-71
2023/10/14 13:02:34;;;;;;;6.20;2.10;;;17.70;62.90;;;;;;21177706;28;20217;-68
2023/10/14 13:12:37;;;;;;;6.07;1.80;;;17.80;60.30;;;;;;21141741;28;20694;-67
2023/10/14 13:22:39;;;;;;;4.70;2.10;;;17.80;58.70;;;;;;21074242;28;20238;-67
2023/10/14 13:32:41;;;;;;;10.83;1.97;;;17.80;58.00;;;;;;21090589;28;20238;-68
2023/10/14 13:42:43;;;;;;;6.03;2.20;;;17.90;58.30;;;;;;21090181;28;20690;-65
2023/10/14 13:52:51;;;;;;;10.63;2.33;;;18.40;57.70;;;;;;21089704;28;20242;-64
2023/10/14 14:02:52;;;;;;;4.63;2.13;;;18.30;55.20;;;;;;21088657;28;20238;-68
2023/10/14 14:12:55;;;;;;;5.77;1.73;;;18.60;54.60;;;;;;21124692;28;20530;-67
2023/10/14 14:22:56;;;;;;;6.63;2.00;;;18.20;54.10;;;;;;21171164;28;20263;-70
2023/10/14 14:32:59;;;;;;;8.20;1.70;;;18.00;55.00;;;;;;21170836;28;20240;-70
2023/10/14 14:43:02;;;;;;;4.13;1.93;;;18.20;53.70;;;;;;21169429;28;20721;-72
2023/10/14 14:53:06;;;;;;;6.60;1.80;;;18.10;54.00;;;;;;21168415;28;20273;-74
2023/10/14 15:03:11;;;;;;;11.63;4.83;;;18.40;53.60;;;;;;21168438;28;20205;-77
2023/10/14 15:13:16;;;;;;;6.63;1.80;;;17.90;53.10;;;;;;21126248;28;20685;-72
2023/10/14 15:23:20;;;;;;;4.00;1.70;;;17.80;51.90;;;;;;21081727;28;20704;-70
2023/10/14 15:33:21;;;;;;;4.87;1.73;;;17.30;51.50;;;;;;21080775;28;20233;-73
2023/10/14 15:43:23;;;;;;;4.73;1.67;;;16.90;51.40;;;;;;21080597;28;20229;-73
2023/10/14 15:53:28;;;;;;;6.93;2.00;;;16.50;52.60;;;;;;21079955;28;20716;-69
2023/10/14 16:03:30;;;;;;;6.00;2.73;;;16.30;53.20;;;;;;21080066;28;20229;-70
2023/10/14 16:13:31;;;;;;;4.60;1.60;;;16.20;54.20;;;;;;21122355;28;20282;-69
2023/10/14 16:23:33;;;;;;;6.20;1.90;;;16.10;55.20;;;;;;21162914;28;20216;-72
2023/10/14 16:33:35;;;;;;;5.93;1.70;;;16.00;56.20;;;;;;21174311;28;20243;-73
2023/10/14 16:43:37;;;;;;;7.97;2.00;;;15.90;56.50;;;;;;21179350;28;20291;-68
2023/10/14 16:53:39;;;;;;;2.63;1.43;;;16.10;56.50;;;;;;21177959;28;20277;-66
2023/10/14 17:03:43;;;;;;;3.43;1.60;;;16.10;56.30;;;;;;21177659;28;20233;-67
2023/10/14 17:13:46;;;;;;;5.50;2.30;;;16.10;56.10;;;;;;21131059;28;20635;-65
2023/10/14 17:23:49;;;;;;;7.93;1.80;;;15.90;56.00;;;;;;21090985;28;20206;-67
2023/10/14 17:33:51;;;;;;;4.33;1.70;;;15.80;55.60;;;;;;21090783;28;20236;-66
2023/10/14 17:43:54;;;;;;;4.53;1.90;;;15.80;55.50;;;;;;21088768;28;20650;-71
2023/10/14 17:53:56;;;;;;;4.40;1.63;;;15.80;55.40;;;;;;21089051;28;20716;-69
2023/10/14 18:03:58;;;;;;;5.53;1.83;;;15.70;55.30;;;;;;21088954;28;20211;-69
2023/10/14 18:14:02;;;;;;;6.30;1.50;;;15.60;55.50;;;;;;21134149;28;20272;-64
2023/10/14 18:24:05;;;;;;;5.63;1.80;;;15.50;55.20;;;;;;21106600;28;20287;-64
2023/10/14 18:34:06;;;;;;;4.30;1.90;;;15.20;54.20;;;;;;21084984;28;20723;-71
2023/10/14 18:44:08;;;;;;;3.73;1.30;;;15.20;54.70;;;;;;21084153;28;20220;-62
2023/10/14 18:54:10;;;;;;;6.27;1.70;;;15.10;54.90;;;;;;21082696;28;20576;-62
2023/10/14 19:04:13;;;;;;;5.43;1.80;;;15.00;55.20;;;;;;21083401;28;20202;-65
2023/10/14 19:14:17;;;;;;;6.33;1.73;;;15.00;55.40;;;;;;21130193;28;20226;-70
2023/10/14 19:24:19;;;;;;;5.40;1.53;;;14.80;55.80;;;;;;21164495;28;20702;-72
2023/10/14 19:34:21;;;;;;;6.27;1.50;;;14.80;56.00;;;;;;21164256;28;20233;-72
2023/10/14 19:44:24;;;;;;;5.50;1.90;;;14.70;56.20;;;;;;21163267;28;20203;-67
2023/10/14 19:54:26;;;;;;;5.87;2.00;;;14.70;56.50;;;;;;21091021;28;20269;-74
2023/10/14 20:04:28;;;;;;;6.40;1.67;;;14.60;57.10;;;;;;21076731;28;20213;-73
2023/10/14 20:14:29;;;;;;;6.50;1.87;;;14.60;57.50;;;;;;21127862;28;20645;-73
2023/10/14 20:24:31;;;;;;;5.63;1.50;;;14.60;57.50;;;;;;21158640;28;20210;-71
2023/10/14 20:34:33;;;;;;;6.23;2.00;;;14.50;57.80;;;;;;21160032;28;20240;-71
2023/10/14 20:44:36;;;;;;;4.10;1.47;;;14.50;58.00;;;;;;21159376;28;20205;-73
2023/10/14 20:54:37;;;;;;;7.13;1.93;;;14.40;58.30;;;;;;21159552;28;20628;-66
2023/10/14 21:04:39;;;;;;;5.30;1.90;;;14.40;58.70;;;;;;21159371;28;20202;-73
2023/10/14 21:14:41;;;;;;;7.67;1.90;;;14.40;58.90;;;;;;21108151;28;20325;-72
2023/10/14 21:24:42;;;;;;;4.73;1.90;;;14.40;59.30;;;;;;21089648;28;20199;-66
2023/10/14 21:34:46;;;;;;;4.47;1.93;;;14.50;59.50;;;;;;21089265;28;20324;-69
2023/10/14 21:44:49;;;;;;;6.40;2.07;;;14.40;59.70;;;;;;21088407;28;20206;-74
2023/10/14 21:54:51;;;;;;;5.43;1.80;;;14.20;60.40;;;;;;21087316;28;20593;-69
2023/10/14 22:04:56;;;;;;;6.07;2.20;;;14.10;61.10;;;;;;21087324;28;20206;-71
2023/10/14 22:14:58;;;;;;;6.70;1.90;;;14.20;61.40;;;;;;21141672;28;20241;-68
2023/10/14 22:25:00;;;;;;;6.20;1.73;;;14.10;61.50;;;;;;21118838;28;20216;-69
2023/10/14 22:35:08;;;;;;;6.90;1.97;;;13.90;61.70;;;;;;21084082;28;20329;-69
2023/10/14 22:45:10;;;;;;;6.27;1.70;;;13.90;61.80;;;;;;21083873;28;20210;-70
2023/10/14 22:55:13;;;;;;;7.17;1.87;;;13.70;61.80;;;;;;21084662;28;20337;-72
2023/10/14 23:05:20;;;;;;;10.07;2.40;;;13.60;62.10;;;;;;21084666;28;20238;-72
2023/10/14 23:15:26;;;;;;;5.37;1.63;;;13.40;62.70;;;;;;21083284;28;20234;-64
2023/10/14 23:25:31;;;;;;;8.57;2.07;;;13.30;63.30;;;;;;21082816;28;20201;-66
2023/10/14 23:35:33;;;;;;;6.13;1.80;;;13.20;63.90;;;;;;21083135;28;20230;-64
2023/10/14 23:45:36;;;;;;;7.97;1.73;;;13.20;64.30;;;;;;21081309;28;20202;-64
2023/10/14 23:55:37;;;;;;;6.97;1.90;;;13.10;65.20;;;;;;21080924;28;20274;-68
